sensor_id;sensor_type;location;lat;lon;timestamp;temperature;humidity
31038;DHT22;17702;47.590;7.666;2023-07-09T00:01:52;22.30;99.90
31038;DHT22;17702;47.590;7.666;2023-07-09T00:04:18;22.30;99.90
31038;DHT22;17702;47.590;7.666;2023-07-09T00:06:44;22.30;99.90
31038;DHT22;17702;47.590;7.666;2023-07-09T00:09:21;22.30;99.90
31038;DHT22;17702;47.590;7.666;2023-07-09T00:11:47;22.20;99.90
31038;DHT22;17702;47.590;7.666;2023-07-09T00:14:15;22.20;99.90
31038;DHT22;17702;47.590;7.666;2023-07-09T00:16:44;22.10;99.90
31038;DHT22;17702;47.590;7.666;2023-07-09T00:19:16;22.10;99.90
31038;DHT22;17702;47.590;7.666;2023-07-09T00:21:43;22.00;99.90
31038;DHT22;17702;47.590;7.666;2023-07-09T00:24:13;22.00;99.90
31038;DHT22;17702;47.590;7.666;2023-07-09T00:26:40;22.00;99.90
31038;DHT22;17702;47.590;7.666;2023-07-09T00:29:10;22.00;99.90
31038;DHT22;17702;47.590;7.666;2023-07-09T00:31:36;22.00;99.90
31038;DHT22;17702;47.590;7.666;2023-07-09T00:34:11;22.00;99.90
31038;DHT22;17702;47.590;7.666;2023-07-09T00:36:41;21.90;99.90
31038;DHT22;17702;47.590;7.666;2023-07-09T00:39:22;21.90;99.90
31038;DHT22;17702;47.590;7.666;2023-07-09T00:41:49;21.90;99.90
31038;DHT22;17702;47.590;7.666;2023-07-09T00:44:32;21.90;99.90
31038;DHT22;17702;47.590;7.666;2023-07-09T00:49:33;22.00;99.90
31038;DHT22;17702;47.590;7.666;2023-07-09T00:52:03;22.10;99.90
31038;DHT22;17702;47.590;7.666;2023-07-09T00:54:34;22.20;99.90
31038;DHT22;17702;47.590;7.666;2023-07-09T00:57:07;22.20;99.90
31038;DHT22;17702;47.590;7.666;2023-07-09T00:59:33;22.30;99.90
31038;DHT22;17702;47.590;7.666;2023-07-09T01:01:59;22.30;99.90
31038;DHT22;17702;47.590;7.666;2023-07-09T01:04:26;22.30;99.90
31038;DHT22;17702;47.590;7.666;2023-07-09T01:06:54;22.30;99.90
31038;DHT22;17702;47.590;7.666;2023-07-09T01:09:21;22.30;99.90
31038;DHT22;17702;47.590;7.666;2023-07-09T01:11:47;22.40;99.90
31038;DHT22;17702;47.590;7.666;2023-07-09T01:14:15;22.40;99.90
31038;DHT22;17702;47.590;7.666;2023-07-09T01:16:47;22.40;99.90
31038;DHT22;17702;47.590;7.666;2023-07-09T01:19:14;22.40;99.90
31038;DHT22;17702;47.590;7.666;2023-07-09T01:21:42;22.40;99.90
31038;DHT22;17702;47.590;7.666;2023-07-09T01:24:16;22.40;99.90
31038;DHT22;17702;47.590;7.666;2023-07-09T01:26:45;22.50;99.90
31038;DHT22;17702;47.590;7.666;2023-07-09T01:29:12;22.40;99.90
31038;DHT22;17702;47.590;7.666;2023-07-09T01:31:37;22.50;99.90
31038;DHT22;17702;47.590;7.666;2023-07-09T01:34:03;22.50;99.90
31038;DHT22;17702;47.590;7.666;2023-07-09T01:36:28;22.50;99.90
31038;DHT22;17702;47.590;7.666;2023-07-09T01:38:56;22.40;99.90
31038;DHT22;17702;47.590;7.666;2023-07-09T01:41:22;22.50;99.90
31038;DHT22;17702;47.590;7.666;2023-07-09T01:43:47;22.50;99.90
31038;DHT22;17702;47.590;7.666;2023-07-09T01:46:13;22.60;99.90
31038;DHT22;17702;47.590;7.666;2023-07-09T01:48:39;22.60;99.90
31038;DHT22;17702;47.590;7.666;2023-07-09T01:51:14;22.50;99.90
31038;DHT22;17702;47.590;7.666;2023-07-09T01:53:42;22.40;99.90
31038;DHT22;17702;47.590;7.666;2023-07-09T01:56:09;22.40;99.90
31038;DHT22;17702;47.590;7.666;2023-07-09T01:58:36;22.30;99.90
31038;DHT22;17702;47.590;7.666;2023-07-09T02:01:02;22.20;99.90
31038;DHT22;17702;47.590;7.666;2023-07-09T02:03:28;22.20;99.90
31038;DHT22;17702;47.590;7.666;2023-07-09T02:05:54;22.20;99.90
31038;DHT22;17702;47.590;7.666;2023-07-09T02:08:20;22.10;99.90
31038;DHT22;17702;47.590;7.666;2023-07-09T02:10:50;22.10;99.90
31038;DHT22;17702;47.590;7.666;2023-07-09T02:13:16;22.10;99.90
31038;DHT22;17702;47.590;7.666;2023-07-09T02:15:43;22.10;99.90
31038;DHT22;17702;47.590;7.666;2023-07-09T02:18:15;22.10;99.90
31038;DHT22;17702;47.590;7.666;2023-07-09T02:20:41;22.20;99.90
31038;DHT22;17702;47.590;7.666;2023-07-09T02:23:08;22.20;99.90
31038;DHT22;17702;47.590;7.666;2023-07-09T02:25:34;22.20;99.90
31038;DHT22;17702;47.590;7.666;2023-07-09T02:27:59;22.30;99.90
31038;DHT22;17702;47.590;7.666;2023-07-09T02:30:25;22.30;99.90
31038;DHT22;17702;47.590;7.666;2023-07-09T02:32:50;22.30;99.80
31038;DHT22;17702;47.590;7.666;2023-07-09T02:35:20;22.30;99.90
31038;DHT22;17702;47.590;7.666;2023-07-09T02:37:45;22.30;99.90
31038;DHT22;17702;47.590;7.666;2023-07-09T02:40:12;22.30;99.90
31038;DHT22;17702;47.590;7.666;2023-07-09T02:42:38;22.30;99.90
31038;DHT22;17702;47.590;7.666;2023-07-09T02:45:04;22.30;99.90
31038;DHT22;17702;47.590;7.666;2023-07-09T02:47:30;22.30;99.60
31038;DHT22;17702;47.590;7.666;2023-07-09T02:49:55;22.30;99.70
31038;DHT22;17702;47.590;7.666;2023-07-09T02:52:21;22.30;99.90
31038;DHT22;17702;47.590;7.666;2023-07-09T02:54:47;22.30;99.60
31038;DHT22;17702;47.590;7.666;2023-07-09T02:57:12;22.30;99.50
31038;DHT22;17702;47.590;7.666;2023-07-09T02:59:38;22.40;99.60
31038;DHT22;17702;47.590;7.666;2023-07-09T03:02:04;22.30;99.60
31038;DHT22;17702;47.590;7.666;2023-07-09T03:04:30;22.30;99.70
31038;DHT22;17702;47.590;7.666;2023-07-09T03:06:57;22.30;99.40
31038;DHT22;17702;47.590;7.666;2023-07-09T03:09:23;22.40;99.90
31038;DHT22;17702;47.590;7.666;2023-07-09T03:11:48;22.40;99.40
31038;DHT22;17702;47.590;7.666;2023-07-09T03:14:14;22.40;99.60
31038;DHT22;17702;47.590;7.666;2023-07-09T03:16:40;22.40;99.70
31038;DHT22;17702;47.590;7.666;2023-07-09T03:19:06;22.40;99.50
31038;DHT22;17702;47.590;7.666;2023-07-09T03:21:32;22.30;99.70
31038;DHT22;17702;47.590;7.666;2023-07-09T03:23:58;22.40;99.30
31038;DHT22;17702;47.590;7.666;2023-07-09T03:26:24;22.40;99.30
31038;DHT22;17702;47.590;7.666;2023-07-09T03:28:51;22.30;99.30
31038;DHT22;17702;47.590;7.666;2023-07-09T03:31:16;22.30;99.30
31038;DHT22;17702;47.590;7.666;2023-07-09T03:33:42;22.30;99.10
31038;DHT22;17702;47.590;7.666;2023-07-09T03:36:08;22.30;99.10
31038;DHT22;17702;47.590;7.666;2023-07-09T03:38:33;22.40;99.20
31038;DHT22;17702;47.590;7.666;2023-07-09T03:40:59;22.30;99.10
31038;DHT22;17702;47.590;7.666;2023-07-09T03:43:25;22.40;99.20
31038;DHT22;17702;47.590;7.666;2023-07-09T03:45:51;22.40;99.10
31038;DHT22;17702;47.590;7.666;2023-07-09T03:48:18;22.30;99.30
31038;DHT22;17702;47.590;7.666;2023-07-09T03:50:45;22.30;99.40
31038;DHT22;17702;47.590;7.666;2023-07-09T03:53:12;22.20;99.50
31038;DHT22;17702;47.590;7.666;2023-07-09T03:55:38;22.20;99.30
31038;DHT22;17702;47.590;7.666;2023-07-09T03:58:04;22.20;99.60
31038;DHT22;17702;47.590;7.666;2023-07-09T04:00:30;22.20;99.60
31038;DHT22;17702;47.590;7.666;2023-07-09T04:02:56;22.10;99.70
31038;DHT22;17702;47.590;7.666;2023-07-09T04:05:22;22.10;99.50
31038;DHT22;17702;47.590;7.666;2023-07-09T04:07:48;22.10;99.70
31038;DHT22;17702;47.590;7.666;2023-07-09T04:10:14;22.10;99.70
31038;DHT22;17702;47.590;7.666;2023-07-09T04:12:40;22.10;99.90
31038;DHT22;17702;47.590;7.666;2023-07-09T04:15:06;22.10;99.90
31038;DHT22;17702;47.590;7.666;2023-07-09T04:17:32;22.10;99.90
31038;DHT22;17702;47.590;7.666;2023-07-09T04:19:58;22.10;99.90
31038;DHT22;17702;47.590;7.666;2023-07-09T04:22:24;22.10;99.90
31038;DHT22;17702;47.590;7.666;2023-07-09T04:24:50;22.10;99.90
31038;DHT22;17702;47.590;7.666;2023-07-09T04:27:17;22.10;99.90
31038;DHT22;17702;47.590;7.666;2023-07-09T04:29:43;22.20;99.90
31038;DHT22;17702;47.590;7.666;2023-07-09T04:32:14;22.20;99.90
31038;DHT22;17702;47.590;7.666;2023-07-09T04:34:39;22.20;99.80
31038;DHT22;17702;47.590;7.666;2023-07-09T04:37:10;22.20;99.90
31038;DHT22;17702;47.590;7.666;2023-07-09T04:39:37;22.20;99.90
31038;DHT22;17702;47.590;7.666;2023-07-09T04:42:03;22.20;99.90
31038;DHT22;17702;47.590;7.666;2023-07-09T04:44:29;22.20;99.90
31038;DHT22;17702;47.590;7.666;2023-07-09T04:46:54;22.20;99.90
31038;DHT22;17702;47.590;7.666;2023-07-09T04:49:20;22.20;99.90
31038;DHT22;17702;47.590;7.666;2023-07-09T04:51:46;22.20;99.50
31038;DHT22;17702;47.590;7.666;2023-07-09T04:54:11;22.10;99.90
31038;DHT22;17702;47.590;7.666;2023-07-09T04:56:41;22.10;99.60
31038;DHT22;17702;47.590;7.666;2023-07-09T04:59:09;22.10;99.70
31038;DHT22;17702;47.590;7.666;2023-07-09T05:01:35;22.10;99.90
31038;DHT22;17702;47.590;7.666;2023-07-09T05:04:00;22.10;99.50
31038;DHT22;17702;47.590;7.666;2023-07-09T05:06:26;22.10;99.80
31038;DHT22;17702;47.590;7.666;2023-07-09T05:08:51;22.10;99.40
31038;DHT22;17702;47.590;7.666;2023-07-09T05:11:17;22.10;99.90
31038;DHT22;17702;47.590;7.666;2023-07-09T05:13:43;22.00;99.90
31038;DHT22;17702;47.590;7.666;2023-07-09T05:16:08;22.20;99.90
31038;DHT22;17702;47.590;7.666;2023-07-09T05:18:34;22.20;99.60
31038;DHT22;17702;47.590;7.666;2023-07-09T05:20:59;22.20;99.90
31038;DHT22;17702;47.590;7.666;2023-07-09T05:23:25;22.30;99.30
31038;DHT22;17702;47.590;7.666;2023-07-09T05:25:58;22.40;99.30
31038;DHT22;17702;47.590;7.666;2023-07-09T05:28:25;22.40;99.50
31038;DHT22;17702;47.590;7.666;2023-07-09T05:30:50;22.50;98.90
31038;DHT22;17702;47.590;7.666;2023-07-09T05:33:17;22.60;99.40
31038;DHT22;17702;47.590;7.666;2023-07-09T05:35:44;22.70;98.90
31038;DHT22;17702;47.590;7.666;2023-07-09T05:38:10;22.70;99.00
31038;DHT22;17702;47.590;7.666;2023-07-09T05:40:36;22.80;99.00
31038;DHT22;17702;47.590;7.666;2023-07-09T05:43:02;22.80;98.80
31038;DHT22;17702;47.590;7.666;2023-07-09T05:45:27;22.90;98.80
31038;DHT22;17702;47.590;7.666;2023-07-09T05:47:53;22.90;98.90
31038;DHT22;17702;47.590;7.666;2023-07-09T05:50:19;23.00;98.80
31038;DHT22;17702;47.590;7.666;2023-07-09T05:52:44;23.00;97.60
31038;DHT22;17702;47.590;7.666;2023-07-09T05:55:10;23.10;97.70
31038;DHT22;17702;47.590;7.666;2023-07-09T05:57:35;23.20;97.90
31038;DHT22;17702;47.590;7.666;2023-07-09T06:00:01;23.20;97.90
31038;DHT22;17702;47.590;7.666;2023-07-09T06:02:26;23.20;97.80
31038;DHT22;17702;47.590;7.666;2023-07-09T06:04:52;23.30;98.00
31038;DHT22;17702;47.590;7.666;2023-07-09T06:07:18;23.30;97.70
31038;DHT22;17702;47.590;7.666;2023-07-09T06:09:46;23.40;98.00
31038;DHT22;17702;47.590;7.666;2023-07-09T06:12:13;23.50;98.20
31038;DHT22;17702;47.590;7.666;2023-07-09T06:14:39;23.50;97.70
31038;DHT22;17702;47.590;7.666;2023-07-09T06:17:04;23.60;97.40
31038;DHT22;17702;47.590;7.666;2023-07-09T06:19:30;23.70;97.40
31038;DHT22;17702;47.590;7.666;2023-07-09T06:21:56;23.70;97.30
31038;DHT22;17702;47.590;7.666;2023-07-09T06:24:22;23.80;97.40
31038;DHT22;17702;47.590;7.666;2023-07-09T06:26:48;23.90;97.30
31038;DHT22;17702;47.590;7.666;2023-07-09T06:29:13;24.00;96.90
31038;DHT22;17702;47.590;7.666;2023-07-09T06:31:39;24.00;96.80
31038;DHT22;17702;47.590;7.666;2023-07-09T06:34:06;24.10;96.60
31038;DHT22;17702;47.590;7.666;2023-07-09T06:36:33;24.20;96.40
31038;DHT22;17702;47.590;7.666;2023-07-09T06:38:59;24.30;96.10
31038;DHT22;17702;47.590;7.666;2023-07-09T06:41:24;24.30;95.80
31038;DHT22;17702;47.590;7.666;2023-07-09T06:43:50;24.40;95.60
31038;DHT22;17702;47.590;7.666;2023-07-09T06:46:18;24.40;95.40
31038;DHT22;17702;47.590;7.666;2023-07-09T06:48:44;24.50;96.10
31038;DHT22;17702;47.590;7.666;2023-07-09T06:51:11;24.60;95.30
31038;DHT22;17702;47.590;7.666;2023-07-09T06:53:37;24.70;95.60
31038;DHT22;17702;47.590;7.666;2023-07-09T06:56:03;24.80;95.50
31038;DHT22;17702;47.590;7.666;2023-07-09T06:58:30;24.90;95.50
31038;DHT22;17702;47.590;7.666;2023-07-09T07:01:04;25.00;95.40
31038;DHT22;17702;47.590;7.666;2023-07-09T07:03:31;25.10;94.70
31038;DHT22;17702;47.590;7.666;2023-07-09T07:05:58;25.20;94.70
31038;DHT22;17702;47.590;7.666;2023-07-09T07:08:25;25.30;93.80
31038;DHT22;17702;47.590;7.666;2023-07-09T07:10:57;25.40;94.10
31038;DHT22;17702;47.590;7.666;2023-07-09T07:13:32;25.50;94.50
31038;DHT22;17702;47.590;7.666;2023-07-09T07:15:59;25.50;93.60
31038;DHT22;17702;47.590;7.666;2023-07-09T07:18:25;25.70;94.80
31038;DHT22;17702;47.590;7.666;2023-07-09T07:20:50;25.80;94.90
31038;DHT22;17702;47.590;7.666;2023-07-09T07:23:17;25.90;92.70
31038;DHT22;17702;47.590;7.666;2023-07-09T07:25:44;26.00;93.00
31038;DHT22;17702;47.590;7.666;2023-07-09T07:28:09;26.10;93.40
31038;DHT22;17702;47.590;7.666;2023-07-09T07:30:35;26.20;92.60
31038;DHT22;17702;47.590;7.666;2023-07-09T07:33:01;26.30;92.60
31038;DHT22;17702;47.590;7.666;2023-07-09T07:35:26;26.30;92.40
31038;DHT22;17702;47.590;7.666;2023-07-09T07:37:52;26.30;91.40
31038;DHT22;17702;47.590;7.666;2023-07-09T07:40:17;26.40;91.90
31038;DHT22;17702;47.590;7.666;2023-07-09T07:42:43;26.40;90.70
31038;DHT22;17702;47.590;7.666;2023-07-09T07:45:09;26.50;91.70
31038;DHT22;17702;47.590;7.666;2023-07-09T07:47:35;26.70;91.00
31038;DHT22;17702;47.590;7.666;2023-07-09T07:50:00;26.80;90.60
31038;DHT22;17702;47.590;7.666;2023-07-09T07:52:27;26.90;90.90
31038;DHT22;17702;47.590;7.666;2023-07-09T07:54:53;27.00;90.40
31038;DHT22;17702;47.590;7.666;2023-07-09T07:57:19;27.10;90.30
31038;DHT22;17702;47.590;7.666;2023-07-09T07:59:45;27.20;89.30
31038;DHT22;17702;47.590;7.666;2023-07-09T08:02:12;27.20;89.50
31038;DHT22;17702;47.590;7.666;2023-07-09T08:04:39;27.40;90.60
31038;DHT22;17702;47.590;7.666;2023-07-09T08:07:07;27.60;89.00
31038;DHT22;17702;47.590;7.666;2023-07-09T08:09:34;27.70;85.50
31038;DHT22;17702;47.590;7.666;2023-07-09T08:12:00;27.70;86.60
31038;DHT22;17702;47.590;7.666;2023-07-09T08:14:26;27.90;88.50
31038;DHT22;17702;47.590;7.666;2023-07-09T08:16:52;28.00;84.20
31038;DHT22;17702;47.590;7.666;2023-07-09T08:19:20;28.20;81.20
31038;DHT22;17702;47.590;7.666;2023-07-09T08:21:46;28.30;82.40
31038;DHT22;17702;47.590;7.666;2023-07-09T08:24:12;28.40;76.70
31038;DHT22;17702;47.590;7.666;2023-07-09T08:26:39;28.50;77.90
31038;DHT22;17702;47.590;7.666;2023-07-09T08:29:05;28.60;78.50
31038;DHT22;17702;47.590;7.666;2023-07-09T08:31:31;28.60;77.40
31038;DHT22;17702;47.590;7.666;2023-07-09T08:33:57;28.80;75.40
31038;DHT22;17702;47.590;7.666;2023-07-09T08:36:23;28.80;74.90
31038;DHT22;17702;47.590;7.666;2023-07-09T08:38:49;28.90;75.90
31038;DHT22;17702;47.590;7.666;2023-07-09T08:44:34;29.20;71.70
31038;DHT22;17702;47.590;7.666;2023-07-09T08:52:33;29.50;74.00
31038;DHT22;17702;47.590;7.666;2023-07-09T08:55:05;29.70;72.60
31038;DHT22;17702;47.590;7.666;2023-07-09T08:57:37;29.90;70.50
31038;DHT22;17702;47.590;7.666;2023-07-09T09:00:13;30.10;73.50
31038;DHT22;17702;47.590;7.666;2023-07-09T09:02:51;30.30;73.30
31038;DHT22;17702;47.590;7.666;2023-07-09T09:05:20;30.40;69.10
31038;DHT22;17702;47.590;7.666;2023-07-09T09:07:51;30.50;67.10
31038;DHT22;17702;47.590;7.666;2023-07-09T09:10:25;30.60;68.60
31038;DHT22;17702;47.590;7.666;2023-07-09T09:15:30;30.80;68.90
31038;DHT22;17702;47.590;7.666;2023-07-09T09:18:10;30.70;69.10
31038;DHT22;17702;47.590;7.666;2023-07-09T09:20:41;30.80;69.40
31038;DHT22;17702;47.590;7.666;2023-07-09T09:25:33;30.70;67.80
31038;DHT22;17702;47.590;7.666;2023-07-09T09:28:01;30.70;70.40
31038;DHT22;17702;47.590;7.666;2023-07-09T09:30:28;30.70;68.30
31038;DHT22;17702;47.590;7.666;2023-07-09T09:32:56;30.70;67.30
31038;DHT22;17702;47.590;7.666;2023-07-09T09:35:34;30.60;67.20
31038;DHT22;17702;47.590;7.666;2023-07-09T09:38:01;30.50;68.10
31038;DHT22;17702;47.590;7.666;2023-07-09T09:40:29;30.40;67.00
31038;DHT22;17702;47.590;7.666;2023-07-09T09:42:57;30.30;68.30
31038;DHT22;17702;47.590;7.666;2023-07-09T09:45:35;30.30;70.90
31038;DHT22;17702;47.590;7.666;2023-07-09T09:50:41;30.60;70.50
31038;DHT22;17702;47.590;7.666;2023-07-09T09:53:08;30.70;68.30
31038;DHT22;17702;47.590;7.666;2023-07-09T09:55:35;30.80;68.00
31038;DHT22;17702;47.590;7.666;2023-07-09T09:58:01;30.90;68.30
31038;DHT22;17702;47.590;7.666;2023-07-09T10:00:29;30.90;70.90
31038;DHT22;17702;47.590;7.666;2023-07-09T10:03:03;31.00;67.30
31038;DHT22;17702;47.590;7.666;2023-07-09T10:05:52;31.10;64.50
31038;DHT22;17702;47.590;7.666;2023-07-09T10:08:50;31.20;65.50
31038;DHT22;17702;47.590;7.666;2023-07-09T10:13:49;31.50;62.60
31038;DHT22;17702;47.590;7.666;2023-07-09T10:16:27;31.50;63.80
31038;DHT22;17702;47.590;7.666;2023-07-09T10:21:48;31.50;58.90
31038;DHT22;17702;47.590;7.666;2023-07-09T10:24:31;31.50;61.10
31038;DHT22;17702;47.590;7.666;2023-07-09T10:35:14;31.90;60.80
31038;DHT22;17702;47.590;7.666;2023-07-09T10:38:08;32.10;60.20
31038;DHT22;17702;47.590;7.666;2023-07-09T10:40:39;32.20;60.00
31038;DHT22;17702;47.590;7.666;2023-07-09T10:43:15;32.40;59.50
31038;DHT22;17702;47.590;7.666;2023-07-09T10:45:46;32.60;62.10
31038;DHT22;17702;47.590;7.666;2023-07-09T10:48:16;32.60;58.70
31038;DHT22;17702;47.590;7.666;2023-07-09T10:50:50;32.70;59.00
31038;DHT22;17702;47.590;7.666;2023-07-09T10:53:37;32.60;60.90
31038;DHT22;17702;47.590;7.666;2023-07-09T10:56:11;32.70;60.20
31038;DHT22;17702;47.590;7.666;2023-07-09T10:58:55;32.80;59.50
31038;DHT22;17702;47.590;7.666;2023-07-09T11:01:43;32.80;59.60
31038;DHT22;17702;47.590;7.666;2023-07-09T11:04:37;32.90;58.80
31038;DHT22;17702;47.590;7.666;2023-07-09T11:07:10;33.00;59.30
31038;DHT22;17702;47.590;7.666;2023-07-09T11:09:41;33.10;57.90
31038;DHT22;17702;47.590;7.666;2023-07-09T11:12:22;33.10;57.60
31038;DHT22;17702;47.590;7.666;2023-07-09T11:15:27;33.10;59.80
31038;DHT22;17702;47.590;7.666;2023-07-09T11:17:46;33.10;57.50
31038;DHT22;17702;47.590;7.666;2023-07-09T11:20:31;33.20;57.60
31038;DHT22;17702;47.590;7.666;2023-07-09T11:23:06;33.30;55.80
31038;DHT22;17702;47.590;7.666;2023-07-09T11:25:46;33.40;56.80
31038;DHT22;17702;47.590;7.666;2023-07-09T11:28:12;33.70;55.40
31038;DHT22;17702;47.590;7.666;2023-07-09T11:30:52;33.80;55.60
31038;DHT22;17702;47.590;7.666;2023-07-09T11:33:20;34.10;55.50
31038;DHT22;17702;47.590;7.666;2023-07-09T11:36:11;34.20;56.20
31038;DHT22;17702;47.590;7.666;2023-07-09T11:38:42;34.20;56.40
31038;DHT22;17702;47.590;7.666;2023-07-09T11:41:43;34.30;56.50
31038;DHT22;17702;47.590;7.666;2023-07-09T11:47:16;34.50;52.80
31038;DHT22;17702;47.590;7.666;2023-07-09T11:53:22;34.40;51.00
31038;DHT22;17702;47.590;7.666;2023-07-09T11:55:41;34.40;51.70
31038;DHT22;17702;47.590;7.666;2023-07-09T11:58:18;34.50;54.10
31038;DHT22;17702;47.590;7.666;2023-07-09T12:00:57;34.60;54.60
31038;DHT22;17702;47.590;7.666;2023-07-09T12:03:34;34.80;54.50
31038;DHT22;17702;47.590;7.666;2023-07-09T12:06:27;35.00;53.10
31038;DHT22;17702;47.590;7.666;2023-07-09T12:08:53;35.10;53.20
31038;DHT22;17702;47.590;7.666;2023-07-09T12:11:29;35.30;53.60
31038;DHT22;17702;47.590;7.666;2023-07-09T12:14:04;35.20;52.70
31038;DHT22;17702;47.590;7.666;2023-07-09T12:16:33;35.10;52.70
31038;DHT22;17702;47.590;7.666;2023-07-09T12:18:59;35.00;50.20
31038;DHT22;17702;47.590;7.666;2023-07-09T12:21:25;35.10;51.90
31038;DHT22;17702;47.590;7.666;2023-07-09T12:23:53;35.10;50.70
31038;DHT22;17702;47.590;7.666;2023-07-09T12:26:20;35.00;51.30
31038;DHT22;17702;47.590;7.666;2023-07-09T12:28:53;34.90;51.30
31038;DHT22;17702;47.590;7.666;2023-07-09T12:31:29;34.90;52.50
31038;DHT22;17702;47.590;7.666;2023-07-09T12:33:56;35.00;51.50
31038;DHT22;17702;47.590;7.666;2023-07-09T12:36:24;35.00;52.80
31038;DHT22;17702;47.590;7.666;2023-07-09T12:38:53;35.10;52.10
31038;DHT22;17702;47.590;7.666;2023-07-09T12:41:39;35.10;48.90
31038;DHT22;17702;47.590;7.666;2023-07-09T12:44:18;35.00;51.20
31038;DHT22;17702;47.590;7.666;2023-07-09T12:46:45;35.00;51.60
31038;DHT22;17702;47.590;7.666;2023-07-09T12:49:30;34.90;51.60
31038;DHT22;17702;47.590;7.666;2023-07-09T12:51:58;34.90;50.20
31038;DHT22;17702;47.590;7.666;2023-07-09T12:54:28;34.80;50.90
31038;DHT22;17702;47.590;7.666;2023-07-09T12:56:55;34.70;48.20
31038;DHT22;17702;47.590;7.666;2023-07-09T13:04:21;34.60;53.20
31038;DHT22;17702;47.590;7.666;2023-07-09T13:06:47;34.70;52.40
31038;DHT22;17702;47.590;7.666;2023-07-09T13:09:21;34.80;51.30
31038;DHT22;17702;47.590;7.666;2023-07-09T13:11:48;34.90;51.20
31038;DHT22;17702;47.590;7.666;2023-07-09T13:14:30;34.80;49.80
31038;DHT22;17702;47.590;7.666;2023-07-09T13:17:07;34.80;50.30
31038;DHT22;17702;47.590;7.666;2023-07-09T13:19:33;34.60;49.70
31038;DHT22;17702;47.590;7.666;2023-07-09T13:21:59;34.60;49.70
31038;DHT22;17702;47.590;7.666;2023-07-09T13:24:28;34.70;50.30
31038;DHT22;17702;47.590;7.666;2023-07-09T13:26:53;34.60;52.50
31038;DHT22;17702;47.590;7.666;2023-07-09T13:29:20;34.60;49.70
31038;DHT22;17702;47.590;7.666;2023-07-09T13:31:46;34.70;51.60
31038;DHT22;17702;47.590;7.666;2023-07-09T13:34:21;34.70;48.70
31038;DHT22;17702;47.590;7.666;2023-07-09T13:36:47;34.80;48.60
31038;DHT22;17702;47.590;7.666;2023-07-09T13:39:13;34.70;50.30
31038;DHT22;17702;47.590;7.666;2023-07-09T13:41:44;34.60;49.10
31038;DHT22;17702;47.590;7.666;2023-07-09T13:44:27;34.40;50.40
31038;DHT22;17702;47.590;7.666;2023-07-09T13:46:54;33.80;51.80
31038;DHT22;17702;47.590;7.666;2023-07-09T13:49:22;33.70;48.90
31038;DHT22;17702;47.590;7.666;2023-07-09T13:51:51;33.70;50.90
31038;DHT22;17702;47.590;7.666;2023-07-09T13:54:29;33.70;49.50
31038;DHT22;17702;47.590;7.666;2023-07-09T13:57:02;33.80;49.10
31038;DHT22;17702;47.590;7.666;2023-07-09T13:59:28;33.90;49.20
31038;DHT22;17702;47.590;7.666;2023-07-09T14:01:56;33.90;50.00
31038;DHT22;17702;47.590;7.666;2023-07-09T14:04:22;33.90;50.60
31038;DHT22;17702;47.590;7.666;2023-07-09T14:06:48;33.70;51.10
31038;DHT22;17702;47.590;7.666;2023-07-09T14:09:15;33.80;50.50
31038;DHT22;17702;47.590;7.666;2023-07-09T14:11:46;33.80;49.20
31038;DHT22;17702;47.590;7.666;2023-07-09T14:14:22;33.70;50.40
31038;DHT22;17702;47.590;7.666;2023-07-09T14:16:49;33.50;49.60
31038;DHT22;17702;47.590;7.666;2023-07-09T14:19:18;33.20;49.40
31038;DHT22;17702;47.590;7.666;2023-07-09T14:21:45;33.10;49.70
31038;DHT22;17702;47.590;7.666;2023-07-09T14:24:27;32.90;50.60
31038;DHT22;17702;47.590;7.666;2023-07-09T14:26:55;32.80;53.00
31038;DHT22;17702;47.590;7.666;2023-07-09T14:29:22;32.60;52.30
31038;DHT22;17702;47.590;7.666;2023-07-09T14:31:48;32.30;53.20
31038;DHT22;17702;47.590;7.666;2023-07-09T14:34:27;32.30;51.80
31038;DHT22;17702;47.590;7.666;2023-07-09T14:36:55;32.20;56.30
31038;DHT22;17702;47.590;7.666;2023-07-09T14:39:21;32.20;58.00
31038;DHT22;17702;47.590;7.666;2023-07-09T14:41:47;32.10;58.50
31038;DHT22;17702;47.590;7.666;2023-07-09T14:44:24;32.10;60.00
31038;DHT22;17702;47.590;7.666;2023-07-09T14:46:51;32.10;57.50
31038;DHT22;17702;47.590;7.666;2023-07-09T14:49:20;32.10;56.50
31038;DHT22;17702;47.590;7.666;2023-07-09T14:51:47;32.20;53.50
31038;DHT22;17702;47.590;7.666;2023-07-09T14:54:33;32.20;53.40
31038;DHT22;17702;47.590;7.666;2023-07-09T14:56:59;32.40;55.20
31038;DHT22;17702;47.590;7.666;2023-07-09T14:59:25;32.50;53.70
31038;DHT22;17702;47.590;7.666;2023-07-09T15:01:52;32.60;54.10
31038;DHT22;17702;47.590;7.666;2023-07-09T15:06:47;32.50;54.10
31038;DHT22;17702;47.590;7.666;2023-07-09T15:09:13;32.50;54.90
31038;DHT22;17702;47.590;7.666;2023-07-09T15:11:40;32.50;53.30
31038;DHT22;17702;47.590;7.666;2023-07-09T15:14:12;32.50;54.00
31038;DHT22;17702;47.590;7.666;2023-07-09T15:16:37;32.60;54.20
31038;DHT22;17702;47.590;7.666;2023-07-09T15:19:17;32.60;53.00
31038;DHT22;17702;47.590;7.666;2023-07-09T15:21:44;32.50;54.50
31038;DHT22;17702;47.590;7.666;2023-07-09T15:24:28;32.60;52.80
31038;DHT22;17702;47.590;7.666;2023-07-09T15:26:55;32.60;55.80
31038;DHT22;17702;47.590;7.666;2023-07-09T15:29:23;32.60;53.80
31038;DHT22;17702;47.590;7.666;2023-07-09T15:31:48;32.50;54.00
31038;DHT22;17702;47.590;7.666;2023-07-09T15:34:14;32.50;55.80
31038;DHT22;17702;47.590;7.666;2023-07-09T15:36:45;32.40;55.70
31038;DHT22;17702;47.590;7.666;2023-07-09T15:39:11;32.30;54.80
31038;DHT22;17702;47.590;7.666;2023-07-09T15:41:38;32.10;54.70
31038;DHT22;17702;47.590;7.666;2023-07-09T15:44:04;32.00;54.90
31038;DHT22;17702;47.590;7.666;2023-07-09T15:46:29;31.80;56.00
31038;DHT22;17702;47.590;7.666;2023-07-09T15:48:56;31.80;53.50
31038;DHT22;17702;47.590;7.666;2023-07-09T15:51:22;31.70;54.90
31038;DHT22;17702;47.590;7.666;2023-07-09T15:53:48;31.70;54.70
31038;DHT22;17702;47.590;7.666;2023-07-09T15:56:28;31.70;56.30
31038;DHT22;17702;47.590;7.666;2023-07-09T15:58:56;31.70;55.00
31038;DHT22;17702;47.590;7.666;2023-07-09T16:01:23;31.70;56.60
31038;DHT22;17702;47.590;7.666;2023-07-09T16:03:51;31.60;54.80
31038;DHT22;17702;47.590;7.666;2023-07-09T16:06:17;31.50;57.40
31038;DHT22;17702;47.590;7.666;2023-07-09T16:08:44;31.40;56.20
31038;DHT22;17702;47.590;7.666;2023-07-09T16:11:16;31.40;62.10
31038;DHT22;17702;47.590;7.666;2023-07-09T16:13:42;31.30;63.80
31038;DHT22;17702;47.590;7.666;2023-07-09T16:16:15;31.20;65.50
31038;DHT22;17702;47.590;7.666;2023-07-09T16:18:42;31.20;67.20
31038;DHT22;17702;47.590;7.666;2023-07-09T16:21:20;31.00;67.80
31038;DHT22;17702;47.590;7.666;2023-07-09T16:23:46;30.90;69.90
31038;DHT22;17702;47.590;7.666;2023-07-09T16:26:12;30.90;67.90
31038;DHT22;17702;47.590;7.666;2023-07-09T16:28:38;30.80;72.80